createdAt,value
2022-12-26T00:05:34.288Z,6.33
2022-12-26T00:25:40.082Z,6.53
2022-12-26T01:46:03.467Z,7.19
2022-12-26T02:06:16.392Z,6.67
2022-12-26T03:26:53.342Z,6.73
2022-12-26T03:46:41.152Z,6.99
2022-12-26T04:06:59.957Z,6.81
2022-12-26T04:26:55.656Z,6.97
2022-12-26T04:47:01.460Z,6.98
2022-12-26T05:07:07.200Z,7.11
2022-12-26T05:27:12.953Z,7.16
2022-12-26T05:47:18.718Z,7.27
2022-12-26T06:07:24.570Z,7.27
2022-12-26T06:27:30.373Z,7.34
2022-12-26T06:47:36.095Z,7.40
2022-12-26T07:07:41.865Z,7.08
2022-12-26T07:27:47.681Z,6.48
2022-12-26T07:47:53.449Z,6.62
2022-12-26T08:07:59.210Z,7.07
2022-12-26T08:28:04.925Z,7.43
2022-12-26T08:48:10.737Z,6.57
2022-12-26T09:08:16.477Z,6.23
2022-12-26T09:28:22.202Z,6.18
2022-12-26T09:48:28.410Z,5.78
2022-12-26T10:08:34.213Z,5.56
2022-12-26T10:28:42.547Z,5.79
2022-12-26T10:48:57.437Z,5.66
2022-12-26T11:08:54.151Z,8.36
2022-12-26T11:29:01.493Z,6.44
2022-12-26T11:49:09.815Z,6.26
2022-12-26T12:09:13.905Z,5.86
2022-12-26T12:29:20.570Z,4.46
2022-12-26T12:49:38.010Z,3.69
2022-12-26T13:09:34.526Z,2.87
2022-12-26T13:29:40.544Z,5.38
2022-12-26T13:49:47.246Z,5.90
2022-12-26T14:09:54.075Z,5.37
2022-12-26T14:30:00.967Z,9.88
2022-12-26T14:50:07.476Z,6.33
2022-12-26T15:10:14.424Z,5.91
2022-12-26T15:30:20.931Z,4.33
2022-12-26T15:50:27.046Z,4.47
2022-12-26T16:10:33.025Z,3.98
2022-12-26T16:30:38.745Z,3.80
2022-12-26T16:50:44.495Z,2.86
2022-12-26T17:10:50.208Z,2.41
2022-12-26T17:30:56.015Z,2.34
2022-12-26T17:51:01.773Z,2.27
2022-12-26T18:11:07.533Z,3.22
2022-12-26T18:31:13.337Z,2.48
2022-12-26T18:51:19.092Z,2.08
2022-12-26T19:11:24.957Z,2.62
2022-12-26T19:31:30.729Z,2.03
2022-12-26T19:51:36.453Z,2.30
2022-12-26T20:11:42.696Z,1.42
2022-12-26T20:31:48.990Z,1.68
2022-12-26T20:51:55.477Z,1.05
2022-12-26T21:12:01.193Z,0.74
2022-12-26T21:32:06.994Z,0.47
2022-12-26T21:52:13.215Z,0.70
2022-12-26T22:12:19.462Z,0.83
2022-12-26T22:32:25.247Z,0.59
2022-12-26T22:52:31.553Z,0.60
2022-12-26T23:12:37.407Z,1.76
2022-12-26T23:32:43.144Z,0.55
2022-12-26T23:52:49.411Z,0.55
